Time;durP1;ratioP1;P1;durP2;ratioP2;P2;SDS_P1;SDS_P2;PMS_P1;PMS_P2;Temp;Humidity;BMP_temperature;BMP_pressure;BME280_temperature;BME280_humidity;BME280_pressure;Samples;Min_cycle;Max_cycle;Signal;HPM_P1;HPM_P2
2022/12/09 00:00:13;;;;;;;;;21.00;17.00;;;;;;;;5034102;27;11521;-83
2022/12/09 00:02:40;;;;;;;;;23.33;20.33;;;;;;;;5041516;28;11642;-83
2022/12/09 00:05:08;;;;;;;;;30.00;24.75;;;;;;;;5046454;27;11573;-82
2022/12/09 00:07:36;;;;;;;;;32.75;21.75;;;;;;;;5052235;28;11540;-83
2022/12/09 00:10:05;;;;;;;;;25.33;22.00;;;;;;;;5025211;28;11533;-82
2022/12/09 00:12:32;;;;;;;;;26.25;22.50;;;;;;;;5043653;28;11593;-82
2022/12/09 00:15:04;;;;;;;;;31.00;26.33;;;;;;;;5038723;28;12329;-83
2022/12/09 00:17:32;;;;;;;;;21.00;18.00;;;;;;;;5035393;28;12385;-82
2022/12/09 00:20:01;;;;;;;;;27.00;23.33;;;;;;;;5020807;27;11519;-83
2022/12/09 00:22:28;;;;;;;;;33.33;33.33;;;;;;;;5032451;28;11529;-83
2022/12/09 00:24:56;;;;;;;;;47.33;37.00;;;;;;;;5020130;27;9017;-83
2022/12/09 00:27:23;;;;;;;;;36.67;32.67;;;;;;;;5047778;27;11530;-82
2022/12/09 00:29:51;;;;;;;;;42.33;35.67;;;;;;;;5049929;27;12285;-83
2022/12/09 00:32:20;;;;;;;;;34.33;31.33;;;;;;;;5026489;28;11515;-83
2022/12/09 00:34:49;;;;;;;;;39.67;38.00;;;;;;;;5023699;28;11571;-83
2022/12/09 00:37:17;;;;;;;;;40.00;33.33;;;;;;;;5043884;27;9764;-83
2022/12/09 00:39:44;;;;;;;;;40.33;27.00;;;;;;;;5040768;27;11516;-83
2022/12/09 00:42:12;;;;;;;;;36.33;30.33;;;;;;;;5043702;27;11510;-82
2022/12/09 00:44:41;;;;;;;;;27.75;23.25;;;;;;;;5056846;27;11527;-82
2022/12/09 00:47:09;;;;;;;;;25.00;19.00;;;;;;;;5051447;28;11593;-83
2022/12/09 00:49:38;;;;;;;;;23.00;20.33;;;;;;;;5042632;27;11506;-82
2022/12/09 00:52:06;;;;;;;;;27.00;20.75;;;;;;;;5001140;28;11512;-84
2022/12/09 00:54:34;;;;;;;;;38.67;34.67;;;;;;;;5016505;28;11548;-84
2022/12/09 00:57:02;;;;;;;;;38.33;31.00;;;;;;;;5055038;27;8840;-84
2022/12/09 00:59:29;;;;;;;;;37.00;31.67;;;;;;;;5035405;27;11715;-84
2022/12/09 01:01:57;;;;;;;;;29.33;28.33;;;;;;;;5039909;27;11565;-84
2022/12/09 01:04:24;;;;;;;;;33.67;25.33;;;;;;;;5041974;27;11513;-83
2022/12/09 01:06:53;;;;;;;;;30.67;26.67;;;;;;;;5049771;27;11517;-82
2022/12/09 01:09:21;;;;;;;;;40.00;30.00;;;;;;;;5052053;27;11645;-83
2022/12/09 01:11:48;;;;;;;;;40.67;35.00;;;;;;;;5038938;27;11535;-84
2022/12/09 01:14:16;;;;;;;;;26.00;26.00;;;;;;;;5030333;27;8844;-83
2022/12/09 01:16:44;;;;;;;;;28.00;24.33;;;;;;;;5027630;27;11537;-83
2022/12/09 01:19:14;;;;;;;;;31.67;31.67;;;;;;;;5035493;27;11532;-83
2022/12/09 01:21:42;;;;;;;;;38.67;35.00;;;;;;;;5029585;27;8832;-83
2022/12/09 01:24:12;;;;;;;;;32.67;29.33;;;;;;;;5041262;27;11645;-82
2022/12/09 01:26:39;;;;;;;;;59.33;47.67;;;;;;;;5039095;27;11513;-83
2022/12/09 01:29:07;;;;;;;;;41.00;31.67;;;;;;;;5043542;27;8842;-83
2022/12/09 01:31:34;;;;;;;;;19.50;18.25;;;;;;;;5014223;28;8823;-83
2022/12/09 01:34:03;;;;;;;;;35.67;32.33;;;;;;;;5055945;27;11642;-83
2022/12/09 01:36:31;;;;;;;;;24.67;23.33;;;;;;;;5063698;27;11508;-82
2022/12/09 01:39:00;;;;;;;;;22.67;22.67;;;;;;;;5020659;28;11530;-83
2022/12/09 01:41:29;;;;;;;;;36.67;25.00;;;;;;;;5030915;27;11554;-83
2022/12/09 01:44:15;;;;;;;;;85.67;63.67;;;;;;;;5049270;27;11537;-83
2022/12/09 01:46:43;;;;;;;;;77.67;56.00;;;;;;;;5052689;27;8814;-82
2022/12/09 01:49:14;;;;;;;;;40.00;37.00;;;;;;;;5050947;27;8829;-83
2022/12/09 01:51:43;;;;;;;;;19.00;19.00;;;;;;;;5050558;27;8858;-83
2022/12/09 01:54:10;;;;;;;;;32.67;29.67;;;;;;;;5052560;27;11471;-82
2022/12/09 01:56:40;;;;;;;;;24.67;23.67;;;;;;;;5013754;28;8901;-82
2022/12/09 01:59:11;;;;;;;;;27.00;24.33;;;;;;;;5039555;27;11604;-82
2022/12/09 02:01:39;;;;;;;;;27.33;22.67;;;;;;;;5041309;27;11478;-82
2022/12/09 02:04:07;;;;;;;;;34.67;27.00;;;;;;;;5021546;27;11680;-82
2022/12/09 02:06:36;;;;;;;;;42.00;27.67;;;;;;;;5045935;27;8818;-83
2022/12/09 02:09:05;;;;;;;;;31.00;26.00;;;;;;;;5046497;27;12274;-83
2022/12/09 02:11:43;;;;;;;;;45.67;42.00;;;;;;;;5052599;27;11526;-83
2022/12/09 02:14:17;;;;;;;;;46.00;39.67;;;;;;;;5039443;27;8902;-83
2022/12/09 02:16:54;;;;;;;;;59.00;44.00;;;;;;;;5048010;27;8882;-82
2022/12/09 02:19:30;;;;;;;;;26.67;22.67;;;;;;;;5048940;27;8837;-81
2022/12/09 02:21:59;;;;;;;;;45.67;34.67;;;;;;;;5033546;27;11590;-82
2022/12/09 02:24:34;;;;;;;;;29.67;26.67;;;;;;;;5033150;27;8834;-82
2022/12/09 02:27:12;;;;;;;;;40.33;31.67;;;;;;;;5040428;28;8848;-82
2022/12/09 02:30:00;;;;;;;;;25.67;24.33;;;;;;;;5017260;27;8864;-82
2022/12/09 02:32:51;;;;;;;;;23.00;17.33;;;;;;;;5031014;28;11512;-82
2022/12/09 02:35:22;;;;;;;;;17.67;14.67;;;;;;;;5043560;27;11574;-82
2022/12/09 02:37:55;;;;;;;;;30.00;21.33;;;;;;;;5019378;27;11599;-82
2022/12/09 02:40:27;;;;;;;;;24.33;24.00;;;;;;;;5050828;27;8879;-82
2022/12/09 02:42:56;;;;;;;;;39.00;34.33;;;;;;;;5052109;27;8809;-81
2022/12/09 02:45:26;;;;;;;;;22.00;17.67;;;;;;;;5054666;27;8865;-82
2022/12/09 02:47:54;;;;;;;;;21.00;21.00;;;;;;;;5071735;27;11517;-82
2022/12/09 02:50:27;;;;;;;;;31.00;18.33;;;;;;;;5035097;27;11534;-82
2022/12/09 02:52:57;;;;;;;;;19.00;16.33;;;;;;;;5043526;27;11733;-81
2022/12/09 02:55:24;;;;;;;;;41.67;39.00;;;;;;;;5036171;27;11662;-82
2022/12/09 02:57:55;;;;;;;;;34.33;31.67;;;;;;;;5049290;27;8838;-81
2022/12/09 03:00:23;;;;;;;;;32.00;27.67;;;;;;;;5038951;27;8859;-82
2022/12/09 03:02:52;;;;;;;;;34.00;24.00;;;;;;;;5100977;27;8848;-83
2022/12/09 03:05:26;;;;;;;;;20.33;20.33;;;;;;;;5012844;27;8856;-82
2022/12/09 03:08:01;;;;;;;;;21.00;21.00;;;;;;;;5029137;28;11541;-82
2022/12/09 03:10:34;;;;;;;;;20.33;19.33;;;;;;;;5055066;27;11541;-82
2022/12/09 03:13:06;;;;;;;;;22.33;21.00;;;;;;;;5028145;27;11637;-82
2022/12/09 03:15:35;;;;;;;;;24.33;17.33;;;;;;;;5016823;28;8852;-82
2022/12/09 03:18:06;;;;;;;;;21.00;17.67;;;;;;;;5018212;27;11517;-81
2022/12/09 03:20:38;;;;;;;;;20.00;15.33;;;;;;;;5010201;28;8850;-83
2022/12/09 03:23:07;;;;;;;;;11.00;11.00;;;;;;;;5046095;28;8978;-82
2022/12/09 03:25:39;;;;;;;;;22.00;18.67;;;;;;;;5054035;27;8828;-83
2022/12/09 03:28:09;;;;;;;;;18.33;18.33;;;;;;;;5044710;27;9552;-84
2022/12/09 03:30:39;;;;;;;;;23.00;19.00;;;;;;;;5019564;28;8943;-84
2022/12/09 03:33:08;;;;;;;;;18.00;18.00;;;;;;;;5042232;27;8841;-83
2022/12/09 03:35:40;;;;;;;;;24.33;18.67;;;;;;;;5033606;28;8848;-83
2022/12/09 03:38:10;;;;;;;;;14.00;14.00;;;;;;;;5048123;27;8846;-83
2022/12/09 03:40:39;;;;;;;;;25.33;24.00;;;;;;;;5064717;28;8846;-83
2022/12/09 03:43:10;;;;;;;;;32.67;22.33;;;;;;;;5013630;27;8982;-83
2022/12/09 03:45:39;;;;;;;;;23.67;23.67;;;;;;;;5036731;27;8862;-84
2022/12/09 03:48:07;;;;;;;;;28.00;21.00;;;;;;;;5028177;28;8834;-83
2022/12/09 03:50:39;;;;;;;;;28.33;26.00;;;;;;;;5049386;27;8832;-83
2022/12/09 03:53:10;;;;;;;;;23.00;21.00;;;;;;;;5052843;27;8805;-83
2022/12/09 03:55:43;;;;;;;;;33.67;25.33;;;;;;;;5045341;27;8869;-84
2022/12/09 03:58:13;;;;;;;;;24.67;23.00;;;;;;;;5017292;27;8820;-83
2022/12/09 04:00:41;;;;;;;;;23.33;16.67;;;;;;;;5025943;27;8876;-82
2022/12/09 04:03:08;;;;;;;;;40.67;33.00;;;;;;;;5053464;27;8822;-83
2022/12/09 04:05:36;;;;;;;;;21.33;20.00;;;;;;;;5054838;27;8841;-83
2022/12/09 04:08:05;;;;;;;;;25.33;25.33;;;;;;;;5044831;27;8910;-82
2022/12/09 04:10:33;;;;;;;;;27.67;23.00;;;;;;;;5048276;27;8858;-82
2022/12/09 04:13:01;;;;;;;;;29.33;25.67;;;;;;;;5029319;27;8951;-82
2022/12/09 04:15:29;;;;;;;;;23.67;21.00;;;;;;;;5032494;27;8968;-82
2022/12/09 04:17:56;;;;;;;;;26.67;24.67;;;;;;;;5125600;27;8945;-82
2022/12/09 04:20:24;;;;;;;;;21.00;20.00;;;;;;;;5042571;27;8974;-82
2022/12/09 04:22:51;;;;;;;;;29.00;27.33;;;;;;;;5036577;28;8974;-83
2022/12/09 04:25:21;;;;;;;;;24.67;24.00;;;;;;;;5060001;27;8946;-83
2022/12/09 04:27:48;;;;;;;;;30.33;26.33;;;;;;;;5072018;27;8850;-83
2022/12/09 04:30:16;;;;;;;;;32.00;27.67;;;;;;;;5034791;28;8820;-82
2022/12/09 04:32:44;;;;;;;;;14.33;14.33;;;;;;;;5041834;27;8836;-82
2022/12/09 04:35:12;;;;;;;;;31.33;22.00;;;;;;;;5047589;27;8880;-82
2022/12/09 04:37:39;;;;;;;;;26.00;22.67;;;;;;;;5051022;27;8854;-82
2022/12/09 04:40:08;;;;;;;;;35.33;29.33;;;;;;;;5039654;28;8884;-82
2022/12/09 04:42:37;;;;;;;;;33.67;27.00;;;;;;;;5041426;27;8841;-82
2022/12/09 04:45:06;;;;;;;;;28.33;25.00;;;;;;;;5046993;27;8934;-82
2022/12/09 04:47:34;;;;;;;;;33.33;31.33;;;;;;;;5051733;27;8848;-82
2022/12/09 04:50:01;;;;;;;;;35.67;30.33;;;;;;;;5047287;27;8853;-82
2022/12/09 04:52:29;;;;;;;;;32.33;24.33;;;;;;;;5044859;27;8833;-83
2022/12/09 04:54:56;;;;;;;;;28.33;26.00;;;;;;;;5020294;28;8875;-82
2022/12/09 04:57:24;;;;;;;;;30.67;19.67;;;;;;;;5040107;28;8971;-82
2022/12/09 04:59:52;;;;;;;;;24.67;24.67;;;;;;;;5039611;27;8900;-82
2022/12/09 05:02:20;;;;;;;;;37.00;33.33;;;;;;;;5059993;27;8848;-83
2022/12/09 05:04:48;;;;;;;;;25.67;24.33;;;;;;;;5049575;27;8816;-83
2022/12/09 05:07:15;;;;;;;;;25.67;19.67;;;;;;;;5057200;27;8820;-82
2022/12/09 05:09:43;;;;;;;;;32.00;27.33;;;;;;;;5019820;28;8877;-83
2022/12/09 05:12:10;;;;;;;;;29.00;21.33;;;;;;;;5046555;27;8834;-82
2022/12/09 05:14:38;;;;;;;;;28.33;24.67;;;;;;;;5049136;27;8837;-83
2022/12/09 05:17:07;;;;;;;;;25.00;25.00;;;;;;;;5038746;27;8976;-84
2022/12/09 05:19:34;;;;;;;;;32.67;26.33;;;;;;;;5036525;27;8916;-82
2022/12/09 05:22:02;;;;;;;;;39.67;28.33;;;;;;;;5048256;27;8935;-83
2022/12/09 05:24:30;;;;;;;;;34.00;29.00;;;;;;;;5070655;27;8851;-83
2022/12/09 05:26:58;;;;;;;;;35.00;24.67;;;;;;;;5052399;27;8832;-83
2022/12/09 05:29:26;;;;;;;;;37.33;30.00;;;;;;;;5057876;27;8833;-82
2022/12/09 05:31:59;;;;;;;;;31.00;23.33;;;;;;;;5012063;28;8845;-80
2022/12/09 05:34:29;;;;;;;;;33.33;23.33;;;;;;;;5076072;27;8839;-83
2022/12/09 05:36:57;;;;;;;;;33.33;27.33;;;;;;;;5056585;28;8834;-82
2022/12/09 05:39:24;;;;;;;;;24.33;22.33;;;;;;;;5021960;28;8897;-81
2022/12/09 05:41:52;;;;;;;;;22.33;19.67;;;;;;;;5029921;28;8878;-80
2022/12/09 05:44:26;;;;;;;;;36.00;26.33;;;;;;;;5041425;27;8848;-81
2022/12/09 05:46:54;;;;;;;;;31.33;26.33;;;;;;;;5079311;27;8861;-83
2022/12/09 05:49:25;;;;;;;;;27.33;19.67;;;;;;;;5048094;27;8842;-83
2022/12/09 05:52:14;;;;;;;;;35.67;28.00;;;;;;;;5026154;28;8828;-84
2022/12/09 05:54:42;;;;;;;;;28.00;23.67;;;;;;;;5055766;27;8874;-83
2022/12/09 05:57:14;;;;;;;;;35.33;22.33;;;;;;;;5065662;27;8828;-82
2022/12/09 05:59:42;;;;;;;;;33.33;29.33;;;;;;;;5031900;28;11632;-83
2022/12/09 06:02:25;;;;;;;;;31.67;27.67;;;;;;;;5050559;27;11535;-81
2022/12/09 06:04:54;;;;;;;;;25.33;24.33;;;;;;;;5034116;27;8880;-83
2022/12/09 06:07:23;;;;;;;;;33.00;28.67;;;;;;;;5031093;28;8817;-84
2022/12/09 06:09:51;;;;;;;;;24.33;20.00;;;;;;;;5044251;28;8879;-85
2022/12/09 06:12:20;;;;;;;;;23.33;16.67;;;;;;;;5052132;28;11603;-83
2022/12/09 06:15:16;;;;;;;;;31.00;26.67;;;;;;;;5062606;27;11525;-83
2022/12/09 06:17:50;;;;;;;;;30.67;25.33;;;;;;;;5058660;27;11630;-84
2022/12/09 06:20:30;;;;;;;;;27.33;26.33;;;;;;;;5107174;28;12369;-83
2022/12/09 06:23:02;;;;;;;;;31.33;28.00;;;;;;;;5087542;28;9664;-81
2022/12/09 06:25:30;;;;;;;;;28.33;22.33;;;;;;;;5080179;28;11529;-82
2022/12/09 06:27:57;;;;;;;;;20.00;20.00;;;;;;;;5081336;28;8863;-81
2022/12/09 06:30:26;;;;;;;;;24.33;19.33;;;;;;;;5069134;28;11513;-80
2022/12/09 06:32:54;;;;;;;;;25.33;23.00;;;;;;;;5092095;28;8869;-82
2022/12/09 06:35:21;;;;;;;;;31.00;23.33;;;;;;;;5088823;28;12391;-75
2022/12/09 06:37:52;;;;;;;;;25.33;22.67;;;;;;;;5087560;28;8866;-74
2022/12/09 06:40:21;;;;;;;;;37.67;23.00;;;;;;;;5089692;28;8849;-73
2022/12/09 06:42:53;;;;;;;;;25.67;24.00;;;;;;;;5084075;28;8865;-73
2022/12/09 06:45:22;;;;;;;;;26.67;24.67;;;;;;;;5068752;28;8845;-73
2022/12/09 06:48:00;;;;;;;;;30.00;24.67;;;;;;;;5087601;28;8843;-75
2022/12/09 06:50:27;;;;;;;;;18.00;18.00;;;;;;;;5085024;28;8850;-75
2022/12/09 06:52:56;;;;;;;;;27.00;25.00;;;;;;;;5084145;28;8929;-75
2022/12/09 06:55:25;;;;;;;;;39.00;30.00;;;;;;;;5079606;28;8862;-76
2022/12/09 06:57:53;;;;;;;;;21.00;18.00;;;;;;;;5085899;28;8854;-77
2022/12/09 07:00:21;;;;;;;;;41.67;28.00;;;;;;;;5089945;28;8836;-76
2022/12/09 07:02:49;;;;;;;;;19.00;16.67;;;;;;;;5083923;28;8874;-75
2022/12/09 07:05:16;;;;;;;;;23.00;18.00;;;;;;;;5087502;28;8846;-73
2022/12/09 07:07:45;;;;;;;;;25.00;20.67;;;;;;;;5087856;28;8866;-73
2022/12/09 07:10:13;;;;;;;;;30.33;27.33;;;;;;;;5084972;28;8836;-75
2022/12/09 07:12:42;;;;;;;;;20.33;20.33;;;;;;;;5091312;28;8832;-78
2022/12/09 07:15:11;;;;;;;;;34.67;26.67;;;;;;;;5070007;28;8854;-79
2022/12/09 07:17:39;;;;;;;;;29.33;21.00;;;;;;;;5079993;28;8838;-79
2022/12/09 07:20:09;;;;;;;;;22.67;20.67;;;;;;;;5056785;28;8867;-82
2022/12/09 07:22:36;;;;;;;;;32.33;22.33;;;;;;;;5033461;28;8847;-84
2022/12/09 07:25:04;;;;;;;;;25.00;23.00;;;;;;;;5035003;28;8911;-83
2022/12/09 07:27:31;;;;;;;;;22.33;18.33;;;;;;;;5028680;28;8827;-83
2022/12/09 07:30:01;;;;;;;;;25.33;21.00;;;;;;;;5052314;28;8852;-82
2022/12/09 07:32:29;;;;;;;;;23.00;18.67;;;;;;;;5046043;28;8907;-83
2022/12/09 07:34:57;;;;;;;;;21.33;18.33;;;;;;;;5025374;28;8959;-77
2022/12/09 07:37:24;;;;;;;;;18.67;18.00;;;;;;;;5005204;28;8870;-77
2022/12/09 07:39:52;;;;;;;;;17.67;15.00;;;;;;;;5034652;28;8836;-76
2022/12/09 07:42:19;;;;;;;;;22.00;17.00;;;;;;;;5015827;28;8862;-77
2022/12/09 07:44:48;;;;;;;;;16.33;8.33;;;;;;;;5029368;28;9598;-77
2022/12/09 07:47:17;;;;;;;;;23.33;23.00;;;;;;;;5022917;28;11508;-77
2022/12/09 07:49:44;;;;;;;;;22.33;16.33;;;;;;;;5024370;28;8836;-75
2022/12/09 07:52:12;;;;;;;;;22.00;17.00;;;;;;;;5045778;28;8856;-76
2022/12/09 07:54:40;;;;;;;;;25.33;18.00;;;;;;;;5012507;28;8839;-75
2022/12/09 07:57:07;;;;;;;;;24.00;19.00;;;;;;;;5025407;28;9256;-73
2022/12/09 07:59:35;;;;;;;;;18.00;17.00;;;;;;;;5023240;28;8868;-75
2022/12/09 08:02:02;;;;;;;;;14.67;11.00;;;;;;;;5029184;28;8951;-75
2022/12/09 08:04:31;;;;;;;;;19.33;16.67;;;;;;;;5016525;28;8893;-76
2022/12/09 08:06:59;;;;;;;;;17.33;16.33;;;;;;;;5038146;28;8894;-75
2022/12/09 08:09:27;;;;;;;;;24.00;16.33;;;;;;;;5041117;28;8802;-78
2022/12/09 08:11:54;;;;;;;;;18.00;15.67;;;;;;;;5015989;28;8885;-77
2022/12/09 08:14:22;;;;;;;;;22.33;18.00;;;;;;;;5031091;28;8838;-75
2022/12/09 08:16:49;;;;;;;;;25.67;19.67;;;;;;;;5009741;28;8865;-74
2022/12/09 08:19:17;;;;;;;;;23.33;19.00;;;;;;;;5030759;28;8877;-76
2022/12/09 08:21:46;;;;;;;;;15.67;15.67;;;;;;;;5044282;28;8847;-76
2022/12/09 08:24:14;;;;;;;;;15.67;14.33;;;;;;;;5015966;28;9355;-77
2022/12/09 08:26:41;;;;;;;;;24.67;18.33;;;;;;;;5052242;28;8840;-75
2022/12/09 08:29:09;;;;;;;;;18.00;15.67;;;;;;;;5041848;28;8860;-75
2022/12/09 08:31:37;;;;;;;;;23.00;23.00;;;;;;;;5035067;28;8882;-76
2022/12/09 08:34:05;;;;;;;;;27.33;27.33;;;;;;;;5048143;28;8849;-77
2022/12/09 08:36:32;;;;;;;;;21.00;21.00;;;;;;;;5018558;28;8851;-77
2022/12/09 08:39:02;;;;;;;;;23.00;21.33;;;;;;;;5055198;28;8860;-77
2022/12/09 08:41:35;;;;;;;;;22.67;20.33;;;;;;;;5032266;28;8852;-77
2022/12/09 08:44:03;;;;;;;;;22.67;22.67;;;;;;;;5049786;28;8873;-76
2022/12/09 08:46:31;;;;;;;;;29.00;20.33;;;;;;;;5035055;28;8871;-77
2022/12/09 08:49:00;;;;;;;;;21.67;21.67;;;;;;;;5035514;28;8876;-75
2022/12/09 08:51:29;;;;;;;;;25.67;22.67;;;;;;;;5063881;28;8919;-73
2022/12/09 08:53:57;;;;;;;;;27.00;24.00;;;;;;;;5011138;28;8850;-74
2022/12/09 08:56:26;;;;;;;;;20.67;20.67;;;;;;;;5030215;28;8979;-74
2022/12/09 08:58:54;;;;;;;;;27.33;23.67;;;;;;;;5048585;28;8847;-73
2022/12/09 09:01:24;;;;;;;;;26.33;26.33;;;;;;;;5044466;28;8868;-77
2022/12/09 09:03:52;;;;;;;;;29.67;28.67;;;;;;;;5027548;28;8852;-75
2022/12/09 09:06:20;;;;;;;;;24.33;24.33;;;;;;;;5022164;28;8990;-74
2022/12/09 09:08:47;;;;;;;;;26.33;24.00;;;;;;;;5058913;28;8969;-74
2022/12/09 09:11:17;;;;;;;;;29.00;26.33;;;;;;;;5046371;28;8873;-74
2022/12/09 09:13:47;;;;;;;;;24.00;24.00;;;;;;;;5065160;28;8835;-74
2022/12/09 09:16:19;;;;;;;;;25.67;25.33;;;;;;;;5054061;28;8929;-74
2022/12/09 09:18:47;;;;;;;;;39.33;36.67;;;;;;;;5065333;28;8890;-73
2022/12/09 09:21:17;;;;;;;;;32.00;31.00;;;;;;;;5039502;28;8849;-74
2022/12/09 09:23:46;;;;;;;;;35.00;28.67;;;;;;;;5035546;28;8860;-74
2022/12/09 09:26:17;;;;;;;;;33.33;30.00;;;;;;;;5059402;28;9205;-72
2022/12/09 09:28:47;;;;;;;;;30.00;27.00;;;;;;;;5029375;28;8863;-75
2022/12/09 09:31:16;;;;;;;;;30.33;30.33;;;;;;;;5039492;28;9668;-74
2022/12/09 09:33:43;;;;;;;;;29.67;29.67;;;;;;;;5031155;28;8855;-74
2022/12/09 09:36:14;;;;;;;;;31.67;30.00;;;;;;;;5041893;28;8835;-75
2022/12/09 09:38:42;;;;;;;;;26.00;25.00;;;;;;;;5036709;28;8870;-75
2022/12/09 09:41:20;;;;;;;;;27.00;27.00;;;;;;;;5050957;28;9700;-76
2022/12/09 09:43:49;;;;;;;;;29.00;25.67;;;;;;;;5052973;28;8883;-75
2022/12/09 09:46:20;;;;;;;;;21.67;21.67;;;;;;;;5032563;28;8913;-76
2022/12/09 09:48:48;;;;;;;;;22.00;22.00;;;;;;;;5037329;28;8873;-76
2022/12/09 09:51:18;;;;;;;;;18.33;18.33;;;;;;;;5046291;28;8889;-75
2022/12/09 09:54:08;;;;;;;;;21.00;21.00;;;;;;;;5055875;28;8884;-75
2022/12/09 09:56:39;;;;;;;;;15.00;15.00;;;;;;;;5049931;28;8882;-75
2022/12/09 09:59:21;;;;;;;;;19.33;17.67;;;;;;;;5032750;28;8940;-74
2022/12/09 10:02:10;;;;;;;;;19.33;18.00;;;;;;;;5031292;28;8840;-77
2022/12/09 10:04:54;;;;;;;;;18.00;18.00;;;;;;;;5040874;28;9648;-75
2022/12/09 10:07:26;;;;;;;;;19.00;19.00;;;;;;;;5051044;28;8848;-76
2022/12/09 10:09:57;;;;;;;;;18.00;18.00;;;;;;;;5024294;28;8855;-74
2022/12/09 10:12:30;;;;;;;;;16.67;16.67;;;;;;;;5063411;28;8949;-75
2022/12/09 10:15:03;;;;;;;;;22.33;17.67;;;;;;;;5046006;28;8886;-75
2022/12/09 10:17:36;;;;;;;;;10.67;7.67;;;;;;;;5026115;28;9096;-75
2022/12/09 10:20:07;;;;;;;;;12.33;12.33;;;;;;;;5041196;28;8916;-76
2022/12/09 10:22:42;;;;;;;;;7.00;7.00;;;;;;;;5050376;28;8844;-77
2022/12/09 10:25:18;;;;;;;;;20.00;15.67;;;;;;;;5048721;28;8892;-77
2022/12/09 10:27:51;;;;;;;;;21.00;18.67;;;;;;;;5033707;28;8924;-77
2022/12/09 10:30:22;;;;;;;;;21.67;19.67;;;;;;;;5036038;28;8894;-76
2022/12/09 10:32:49;;;;;;;;;20.33;18.00;;;;;;;;5044332;28;8848;-75
2022/12/09 10:35:19;;;;;;;;;17.33;17.33;;;;;;;;5029494;28;9003;-75
2022/12/09 10:37:47;;;;;;;;;23.00;20.33;;;;;;;;5029886;28;8842;-74
2022/12/09 10:40:21;;;;;;;;;24.00;21.33;;;;;;;;5043634;28;8866;-76
2022/12/09 10:45:43;;;;;;;;;23.67;22.67;;;;;;;;5037145;28;9316;-78
2022/12/09 10:48:29;;;;;;;;;22.33;18.00;;;;;;;;5040118;28;8839;-78
2022/12/09 10:50:58;;;;;;;;;28.00;20.67;;;;;;;;5020103;28;8862;-77
2022/12/09 10:53:29;;;;;;;;;15.67;15.67;;;;;;;;5047290;28;8832;-77
2022/12/09 10:56:00;;;;;;;;;18.00;12.67;;;;;;;;5042690;28;8864;-76
2022/12/09 10:58:30;;;;;;;;;21.00;15.67;;;;;;;;5041945;28;8978;-74
2022/12/09 11:01:08;;;;;;;;;26.33;20.67;;;;;;;;5040793;28;8851;-75
2022/12/09 11:03:38;;;;;;;;;21.00;20.00;;;;;;;;5099204;27;11528;-77
2022/12/09 11:06:20;;;;;;;;;17.67;17.67;;;;;;;;5009570;28;8848;-73
2022/12/09 11:08:53;;;;;;;;;24.67;23.33;;;;;;;;5027557;28;8864;-75
2022/12/09 11:11:22;;;;;;;;;22.33;18.00;;;;;;;;5032483;28;9705;-74
2022/12/09 11:13:49;;;;;;;;;26.33;24.00;;;;;;;;5028893;28;8915;-76
2022/12/09 11:16:27;;;;;;;;;25.00;18.67;;;;;;;;5047079;28;9304;-77
2022/12/09 11:18:58;;;;;;;;;22.33;21.00;;;;;;;;5032719;28;8840;-75
2022/12/09 11:21:32;;;;;;;;;25.33;21.00;;;;;;;;5031805;28;8828;-75
2022/12/09 11:24:01;;;;;;;;;22.67;19.33;;;;;;;;5054247;28;8865;-75
2022/12/09 11:26:40;;;;;;;;;25.33;25.00;;;;;;;;5041296;28;8859;-75
2022/12/09 11:29:16;;;;;;;;;28.00;20.00;;;;;;;;5054497;28;8871;-75
2022/12/09 11:31:57;;;;;;;;;20.33;18.33;;;;;;;;5038096;28;8845;-74
2022/12/09 11:34:26;;;;;;;;;24.67;21.67;;;;;;;;5032025;28;8825;-75
2022/12/09 11:37:01;;;;;;;;;18.67;18.67;;;;;;;;5031743;28;8886;-75
2022/12/09 11:39:30;;;;;;;;;22.33;20.00;;;;;;;;5022366;28;11714;-75
2022/12/09 11:42:17;;;;;;;;;29.67;23.33;;;;;;;;5041606;28;11520;-75
2022/12/09 11:44:52;;;;;;;;;20.67;16.00;;;;;;;;5029720;28;11499;-76
2022/12/09 11:47:34;;;;;;;;;27.67;21.67;;;;;;;;5038550;28;11532;-76
2022/12/09 11:50:06;;;;;;;;;25.00;23.00;;;;;;;;5048897;28;11548;-75
2022/12/09 11:52:35;;;;;;;;;24.00;21.00;;;;;;;;5028806;28;12306;-75
2022/12/09 11:55:13;;;;;;;;;23.00;19.50;;;;;;;;5050461;28;12475;-75
2022/12/09 11:57:46;;;;;;;;;25.75;17.75;;;;;;;;5087596;28;11516;-74
2022/12/09 12:00:43;;;;;;;;;22.75;20.50;;;;;;;;5012678;28;12260;-78
2022/12/09 12:03:19;;;;;;;;;20.25;20.25;;;;;;;;5054605;28;11548;-77
2022/12/09 12:05:50;;;;;;;;;17.25;16.25;;;;;;;;5049411;28;11697;-77
2022/12/09 12:08:34;;;;;;;;;22.25;16.25;;;;;;;;5042340;28;11541;-78
2022/12/09 12:11:07;;;;;;;;;25.00;22.25;;;;;;;;5056933;28;11527;-76
2022/12/09 12:13:39;;;;;;;;;28.67;18.00;;;;;;;;5021530;28;11562;-77
2022/12/09 12:16:15;;;;;;;;;25.50;19.25;;;;;;;;5078371;28;11520;-77
2022/12/09 12:19:01;;;;;;;;;28.00;25.00;;;;;;;;5042702;28;11512;-78
2022/12/09 12:21:46;;;;;;;;;26.25;24.25;;;;;;;;5054577;28;11547;-77
2022/12/09 12:24:43;;;;;;;;;21.25;19.75;;;;;;;;5032942;28;12391;-76
2022/12/09 12:27:24;;;;;;;;;27.50;24.00;;;;;;;;5041015;28;11526;-76
2022/12/09 12:30:03;;;;;;;;;23.00;22.00;;;;;;;;5045921;28;11504;-76
2022/12/09 12:32:55;;;;;;;;;22.25;20.50;;;;;;;;5055948;28;11677;-77
2022/12/09 12:35:46;;;;;;;;;27.50;26.00;;;;;;;;5057335;28;11505;-76
2022/12/09 12:38:22;;;;;;;;;24.25;20.50;;;;;;;;5041473;28;11518;-74
2022/12/09 12:40:58;;;;;;;;;21.50;20.25;;;;;;;;5064056;28;11526;-74
2022/12/09 12:46:49;;;;;;;;;26.25;23.00;;;;;;;;5030712;28;11510;-73
2022/12/09 12:49:28;;;;;;;;;25.50;22.25;;;;;;;;5045682;28;11665;-74
2022/12/09 12:52:03;;;;;;;;;26.75;24.25;;;;;;;;5054152;28;11532;-73
2022/12/09 12:54:44;;;;;;;;;21.00;17.75;;;;;;;;5035094;28;11505;-74
2022/12/09 12:57:19;;;;;;;;;26.50;25.75;;;;;;;;5024157;28;11515;-75
2022/12/09 12:59:54;;;;;;;;;28.00;22.75;;;;;;;;5016560;28;11567;-76
2022/12/09 13:02:33;;;;;;;;;26.50;21.50;;;;;;;;5029063;28;11519;-76
2022/12/09 13:05:04;;;;;;;;;22.75;21.50;;;;;;;;5050363;28;11569;-75
2022/12/09 13:07:38;;;;;;;;;24.00;22.50;;;;;;;;5021570;28;11513;-73
2022/12/09 13:10:14;;;;;;;;;25.25;24.25;;;;;;;;5060410;28;11640;-74
2022/12/09 13:12:57;;;;;;;;;28.00;27.50;;;;;;;;5047701;28;11668;-73
2022/12/09 13:15:31;;;;;;;;;32.75;28.50;;;;;;;;5017235;28;11541;-75
2022/12/09 13:18:01;;;;;;;;;24.00;22.25;;;;;;;;5009422;28;11628;-75
2022/12/09 13:20:34;;;;;;;;;28.50;26.75;;;;;;;;5043053;28;11502;-75
2022/12/09 13:23:07;;;;;;;;;41.75;38.50;;;;;;;;5030800;28;11502;-75
2022/12/09 13:25:40;;;;;;;;;27.75;25.75;;;;;;;;5041656;28;11550;-74
2022/12/09 13:28:11;;;;;;;;;37.50;32.00;;;;;;;;5040746;28;11525;-74
2022/12/09 13:30:43;;;;;;;;;45.50;40.25;;;;;;;;5040475;28;11553;-72
2022/12/09 13:33:36;;;;;;;;;60.25;48.25;;;;;;;;5030896;28;11681;-75
2022/12/09 13:36:09;;;;;;;;;27.00;23.75;;;;;;;;5051922;28;11530;-74
2022/12/09 13:38:41;;;;;;;;;29.50;27.75;;;;;;;;5049750;28;11546;-74
2022/12/09 13:44:37;;;;;;;;;29.50;25.75;;;;;;;;5017275;28;11497;-73
2022/12/09 13:47:24;;;;;;;;;32.50;31.25;;;;;;;;5037132;28;11567;-75
2022/12/09 13:50:00;;;;;;;;;27.00;25.25;;;;;;;;5025026;28;11538;-75
2022/12/09 13:52:44;;;;;;;;;23.75;23.75;;;;;;;;5014182;28;11570;-73
2022/12/09 13:55:49;;;;;;;;;50.25;41.50;;;;;;;;5031199;28;11511;-73
2022/12/09 13:58:55;;;;;;;;;46.25;41.25;;;;;;;;5051503;28;11703;-72
2022/12/09 14:01:30;;;;;;;;;29.75;29.00;;;;;;;;5055606;28;11560;-73
2022/12/09 14:04:12;;;;;;;;;48.00;44.00;;;;;;;;5041755;28;11638;-73
2022/12/09 14:06:59;;;;;;;;;40.50;37.00;;;;;;;;5048875;28;11601;-72
2022/12/09 14:09:40;;;;;;;;;42.50;39.00;;;;;;;;5047258;28;11517;-73
2022/12/09 14:12:22;;;;;;;;;46.50;35.50;;;;;;;;5049251;28;12364;-74
2022/12/09 14:14:55;;;;;;;;;38.25;37.50;;;;;;;;5037508;28;11554;-73
2022/12/09 14:17:56;;;;;;;;;34.50;31.50;;;;;;;;5039650;28;11557;-73
2022/12/09 14:20:27;;;;;;;;;46.50;40.75;;;;;;;;5048254;28;12378;-71
2022/12/09 14:23:14;;;;;;;;;45.25;38.75;;;;;;;;5038302;28;11664;-73
2022/12/09 14:25:57;;;;;;;;;32.00;28.25;;;;;;;;5049199;28;11519;-73
2022/12/09 14:29:00;;;;;;;;;50.00;44.50;;;;;;;;5036540;28;11660;-73
2022/12/09 14:31:54;;;;;;;;;42.75;38.75;;;;;;;;5043904;28;11600;-73
2022/12/09 14:34:31;;;;;;;;;17.00;16.00;;;;;;;;5071017;28;11498;-73
2022/12/09 14:37:12;;;;;;;;;37.00;34.25;;;;;;;;5042901;28;11610;-73
2022/12/09 14:39:48;;;;;;;;;40.50;38.00;;;;;;;;5041794;28;11544;-73
2022/12/09 14:42:29;;;;;;;;;40.00;38.75;;;;;;;;5035542;28;11545;-73
2022/12/09 14:45:10;;;;;;;;;53.75;46.25;;;;;;;;5038309;28;11533;-74
2022/12/09 14:47:46;;;;;;;;;39.25;28.75;;;;;;;;5053928;28;11658;-73
2022/12/09 14:50:17;;;;;;;;;35.50;32.00;;;;;;;;5052549;28;12300;-73
2022/12/09 14:52:53;;;;;;;;;41.00;36.00;;;;;;;;5056785;28;12278;-73
2022/12/09 14:55:24;;;;;;;;;44.25;38.25;;;;;;;;5060478;28;12293;-73
2022/12/09 14:57:56;;;;;;;;;38.75;36.50;;;;;;;;5024146;28;11571;-76
2022/12/09 15:00:34;;;;;;;;;40.25;35.75;;;;;;;;5032622;28;11560;-73
2022/12/09 15:03:06;;;;;;;;;68.00;55.00;;;;;;;;5055062;28;11528;-73